createdAt,value
2018-09-23T00:01:58.551Z,76.85
2018-09-23T00:04:26.731Z,76.89
2018-09-23T00:06:54.931Z,76.56
2018-09-23T00:09:23.115Z,76.71
2018-09-23T00:11:51.299Z,76.76
2018-09-23T00:14:19.484Z,76.82
2018-09-23T00:16:47.668Z,76.88
2018-09-23T00:19:15.861Z,76.68
2018-09-23T00:21:44.039Z,76.71
2018-09-23T00:24:12.297Z,76.94
2018-09-23T00:26:40.482Z,77.50
2018-09-23T00:29:08.675Z,77.48
2018-09-23T00:31:36.849Z,77.82
2018-09-23T00:34:05.058Z,77.60
2018-09-23T00:36:33.267Z,77.54
2018-09-23T00:39:01.452Z,77.77
2018-09-23T00:41:29.635Z,77.96
2018-09-23T00:43:57.806Z,77.49
2018-09-23T00:46:26.007Z,77.54
2018-09-23T00:48:54.179Z,77.63
2018-09-23T00:51:22.407Z,77.48
2018-09-23T00:53:50.594Z,77.72
2018-09-23T00:56:18.772Z,77.67
2018-09-23T00:58:46.939Z,77.52
2018-09-23T01:01:15.130Z,77.75
2018-09-23T01:03:43.307Z,77.49
2018-09-23T01:06:11.499Z,77.53
2018-09-23T01:08:39.684Z,77.84
2018-09-23T01:11:07.872Z,77.69
2018-09-23T01:13:36.039Z,77.77
2018-09-23T01:16:04.232Z,77.88
2018-09-23T01:18:32.411Z,78.06
2018-09-23T01:21:00.606Z,77.62
2018-09-23T01:23:28.984Z,77.80
2018-09-23T01:25:57.159Z,77.82
2018-09-23T01:28:25.343Z,77.81
2018-09-23T01:30:53.729Z,77.94
2018-09-23T01:33:21.903Z,77.89
2018-09-23T01:35:50.780Z,77.61
2018-09-23T01:38:18.968Z,77.65
2018-09-23T01:40:47.163Z,77.80
2018-09-23T01:43:15.367Z,77.67
2018-09-23T01:45:43.547Z,77.70
2018-09-23T01:48:11.748Z,77.35
2018-09-23T01:50:39.917Z,77.40
2018-09-23T01:53:08.123Z,77.61
2018-09-23T01:55:36.299Z,77.68
2018-09-23T01:58:04.484Z,77.77
2018-09-23T02:00:32.675Z,77.84
2018-09-23T02:03:01.007Z,77.97
2018-09-23T02:05:29.204Z,77.70
2018-09-23T02:07:57.423Z,77.63
2018-09-23T02:10:25.613Z,77.66
2018-09-23T02:12:53.804Z,77.71
2018-09-23T02:15:21.989Z,77.79
2018-09-23T02:17:50.213Z,77.65
2018-09-23T02:20:18.408Z,77.74
2018-09-23T02:22:46.584Z,77.89
2018-09-23T02:25:14.935Z,77.81
2018-09-23T02:27:43.107Z,78.11
2018-09-23T02:30:11.307Z,78.03
2018-09-23T02:32:39.491Z,77.99
2018-09-23T02:35:07.703Z,77.74
2018-09-23T02:37:35.912Z,78.05
2018-09-23T02:40:04.124Z,77.89
2018-09-23T02:42:32.319Z,78.05
2018-09-23T02:45:00.503Z,77.82
2018-09-23T02:47:28.708Z,77.91
2018-09-23T02:49:57.122Z,78.08
2018-09-23T02:52:25.505Z,77.79
2018-09-23T02:54:53.691Z,78.03
2018-09-23T02:57:21.916Z,78.11
2018-09-23T02:59:50.104Z,78.10
2018-09-23T03:02:18.300Z,78.40
2018-09-23T03:04:46.483Z,77.89
2018-09-23T03:07:14.674Z,78.34
2018-09-23T03:09:42.903Z,78.10
2018-09-23T03:12:11.087Z,78.25
2018-09-23T03:14:39.276Z,77.94
2018-09-23T03:17:07.476Z,77.95
2018-09-23T03:19:35.672Z,78.16
2018-09-23T03:22:03.870Z,78.24
2018-09-23T03:24:32.051Z,78.14
2018-09-23T03:27:00.271Z,78.36
2018-09-23T03:29:28.446Z,77.98
2018-09-23T03:31:56.635Z,78.32
2018-09-23T03:34:24.831Z,78.42
2018-09-23T03:36:53.010Z,78.14
2018-09-23T03:39:21.199Z,78.18
2018-09-23T03:41:49.397Z,78.19
2018-09-23T03:44:17.588Z,78.17
2018-09-23T03:46:45.780Z,78.20
2018-09-23T03:49:13.987Z,78.29
2018-09-23T03:51:42.192Z,78.12
2018-09-23T03:54:12.318Z,78.21
2018-09-23T03:56:40.903Z,78.26
2018-09-23T03:59:09.083Z,78.12
2018-09-23T04:01:37.361Z,78.34
2018-09-23T04:04:05.851Z,78.48
2018-09-23T04:06:34.044Z,78.41
2018-09-23T04:09:02.202Z,78.55
2018-09-23T04:11:30.428Z,78.55
2018-09-23T04:13:58.634Z,78.20
2018-09-23T04:16:26.823Z,78.01
2018-09-23T04:18:55.019Z,78.24
2018-09-23T04:21:23.196Z,78.62
2018-09-23T04:23:51.384Z,78.30
2018-09-23T04:26:19.563Z,78.61
2018-09-23T04:28:47.764Z,78.58
2018-09-23T04:31:15.939Z,78.55
2018-09-23T04:33:44.151Z,78.83
2018-09-23T04:36:12.332Z,78.72
2018-09-23T04:38:40.511Z,78.69
2018-09-23T04:41:08.702Z,78.69
2018-09-23T04:43:36.888Z,78.59
2018-09-23T04:46:05.093Z,78.79
2018-09-23T04:48:33.295Z,78.73
2018-09-23T04:51:01.497Z,79.01
2018-09-23T04:53:29.717Z,78.81
2018-09-23T04:55:57.895Z,78.69
2018-09-23T04:58:26.087Z,78.33
2018-09-23T05:00:54.267Z,78.48
2018-09-23T05:03:22.483Z,78.43
2018-09-23T05:05:50.657Z,78.43
2018-09-23T05:08:18.862Z,78.55
2018-09-23T05:10:47.068Z,78.67
2018-09-23T05:13:15.263Z,78.57
2018-09-23T05:15:43.584Z,78.90
2018-09-23T05:18:11.784Z,78.84
2018-09-23T05:20:39.975Z,78.98
2018-09-23T05:23:08.150Z,78.83
2018-09-23T05:25:36.384Z,78.51
2018-09-23T05:28:05.411Z,78.55
2018-09-23T05:30:33.608Z,78.54
2018-09-23T05:33:01.783Z,78.59
2018-09-23T05:35:30.066Z,78.71
2018-09-23T05:37:58.231Z,78.89
2018-09-23T05:40:26.522Z,78.53
2018-09-23T05:42:54.849Z,78.12
2018-09-23T05:45:23.328Z,77.93
2018-09-23T05:47:51.533Z,78.06
2018-09-23T05:50:20.219Z,78.22
2018-09-23T05:52:55.678Z,78.33
2018-09-23T05:55:23.864Z,78.41
2018-09-23T05:57:52.107Z,78.44
2018-09-23T06:00:20.309Z,78.41
2018-09-23T06:02:48.504Z,78.48
2018-09-23T06:05:16.695Z,78.62
2018-09-23T06:07:44.916Z,78.63
2018-09-23T06:10:13.448Z,78.58
2018-09-23T06:12:41.640Z,78.87
2018-09-23T06:15:09.848Z,78.76
2018-09-23T06:17:38.179Z,78.69
2018-09-23T06:20:06.424Z,78.82
2018-09-23T06:22:34.594Z,78.64
2018-09-23T06:25:02.846Z,78.61
2018-09-23T06:27:30.973Z,78.43
2018-09-23T06:29:59.232Z,78.73
2018-09-23T06:32:27.437Z,78.83
2018-09-23T06:34:55.618Z,78.59
2018-09-23T06:37:23.804Z,78.47
2018-09-23T06:39:51.992Z,78.59
2018-09-23T06:42:20.200Z,78.52
2018-09-23T06:44:48.389Z,78.53
2018-09-23T06:47:16.573Z,78.55
2018-09-23T06:49:44.759Z,79.00
2018-09-23T06:52:12.947Z,78.74
2018-09-23T06:54:41.118Z,79.24
2018-09-23T06:57:09.306Z,79.30
2018-09-23T06:59:37.482Z,79.22
2018-09-23T07:02:05.663Z,79.11
2018-09-23T07:04:33.951Z,79.15
2018-09-23T07:07:02.054Z,79.08
2018-09-23T07:09:30.234Z,78.83
2018-09-23T07:11:58.423Z,78.49
2018-09-23T07:14:26.602Z,78.68
2018-09-23T07:16:54.824Z,78.47
2018-09-23T07:19:23.014Z,78.68
2018-09-23T07:21:51.228Z,78.63
2018-09-23T07:24:19.420Z,78.80
2018-09-23T07:26:47.618Z,79.00
2018-09-23T07:29:15.817Z,79.11
2018-09-23T07:31:44.019Z,79.21
2018-09-23T07:34:12.219Z,79.21
2018-09-23T07:36:40.473Z,79.04
2018-09-23T07:39:09.458Z,79.32
2018-09-23T07:41:37.659Z,79.37
2018-09-23T07:44:06.020Z,79.15
2018-09-23T07:46:34.207Z,78.91
2018-09-23T07:49:02.445Z,79.05
2018-09-23T07:51:30.695Z,79.82
2018-09-23T07:53:58.948Z,79.22
2018-09-23T07:56:28.327Z,79.43
2018-09-23T07:58:56.508Z,79.66
2018-09-23T08:01:24.761Z,79.74
2018-09-23T08:03:53.184Z,79.73
2018-09-23T08:06:21.388Z,79.58
2018-09-23T08:08:49.619Z,79.22
2018-09-23T08:11:17.878Z,78.95
2018-09-23T08:13:46.259Z,78.62
2018-09-23T08:16:14.383Z,78.52
2018-09-23T08:18:42.645Z,78.36
2018-09-23T08:21:10.915Z,78.37
2018-09-23T08:23:39.116Z,78.39
2018-09-23T08:26:07.468Z,78.17
2018-09-23T08:28:35.688Z,78.45
2018-09-23T08:31:03.916Z,78.21
2018-09-23T08:33:32.146Z,77.61
2018-09-23T08:36:00.755Z,77.93
2018-09-23T08:38:28.946Z,78.04
2018-09-23T08:40:57.279Z,76.96
2018-09-23T08:43:25.474Z,77.64
2018-09-23T08:45:53.691Z,77.39
2018-09-23T08:48:21.991Z,77.48
2018-09-23T08:50:50.140Z,77.78
2018-09-23T08:53:18.396Z,77.88
2018-09-23T08:55:46.562Z,77.46
2018-09-23T08:58:14.968Z,77.49
2018-09-23T09:00:43.218Z,77.45
2018-09-23T09:03:11.421Z,77.11
2018-09-23T09:05:39.727Z,76.86
2018-09-23T09:08:07.980Z,76.37
2018-09-23T09:10:36.815Z,76.77
2018-09-23T09:13:05.019Z,76.58
2018-09-23T09:15:34.307Z,76.52
2018-09-23T09:18:02.566Z,75.78
2018-09-23T09:20:32.331Z,76.21
2018-09-23T09:23:00.691Z,75.63
2018-09-23T09:25:28.879Z,75.57
2018-09-23T09:27:57.120Z,75.88
2018-09-23T09:30:25.335Z,75.90
2018-09-23T09:32:53.713Z,76.01
2018-09-23T09:35:22.044Z,75.83
2018-09-23T09:37:53.893Z,74.96
2018-09-23T09:40:22.177Z,75.58
2018-09-23T09:42:51.168Z,75.79
2018-09-23T09:45:19.417Z,76.21
2018-09-23T09:47:47.857Z,75.91
2018-09-23T09:50:17.297Z,75.65
2018-09-23T09:52:45.606Z,75.82
2018-09-23T09:55:13.985Z,75.74
2018-09-23T09:57:42.267Z,75.91
2018-09-23T10:00:10.558Z,76.16
2018-09-23T10:02:38.734Z,75.78
2018-09-23T10:05:07.108Z,75.92
2018-09-23T10:07:35.297Z,76.26
2018-09-23T10:10:03.565Z,76.71
2018-09-23T10:12:31.756Z,76.75
2018-09-23T10:14:59.936Z,75.95
2018-09-23T10:17:28.321Z,75.48
2018-09-23T10:19:56.500Z,75.36
2018-09-23T10:22:24.755Z,74.76
2018-09-23T10:24:52.916Z,74.10
2018-09-23T10:27:21.199Z,74.03
2018-09-23T10:29:49.443Z,74.43
2018-09-23T10:32:18.824Z,74.72
2018-09-23T10:34:47.034Z,74.50
2018-09-23T10:37:15.275Z,74.43
2018-09-23T10:39:43.476Z,74.53
2018-09-23T10:42:11.672Z,74.40
2018-09-23T10:44:39.883Z,75.49
2018-09-23T10:47:08.127Z,76.07
2018-09-23T10:49:36.307Z,75.94
2018-09-23T10:52:04.526Z,76.45
2018-09-23T10:54:32.719Z,76.92
2018-09-23T10:57:00.912Z,76.94
2018-09-23T10:59:29.141Z,76.94
2018-09-23T11:01:57.284Z,77.08
2018-09-23T11:04:26.235Z,77.70
2018-09-23T11:06:54.754Z,78.77
2018-09-23T11:09:23.095Z,79.53
2018-09-23T11:11:51.329Z,80.72
2018-09-23T11:14:19.743Z,81.65
2018-09-23T11:16:47.934Z,82.29
2018-09-23T11:19:16.153Z,82.82
2018-09-23T11:21:44.364Z,83.23
2018-09-23T11:24:12.551Z,83.69
2018-09-23T11:26:40.758Z,83.54
2018-09-23T11:29:08.964Z,83.76
2018-09-23T11:31:37.171Z,83.23
2018-09-23T11:34:05.359Z,82.65
2018-09-23T11:36:33.587Z,82.83
2018-09-23T11:39:01.803Z,83.07
2018-09-23T11:41:29.984Z,83.12
2018-09-23T11:43:58.195Z,83.34
2018-09-23T11:46:26.380Z,83.58
2018-09-23T11:48:54.588Z,83.61
2018-09-23T11:51:22.766Z,83.22
2018-09-23T11:53:50.991Z,82.71
2018-09-23T11:56:19.179Z,83.19
2018-09-23T11:58:47.486Z,82.98
2018-09-23T12:01:15.585Z,83.02
2018-09-23T12:03:43.767Z,83.06
2018-09-23T12:06:11.962Z,83.32
2018-09-23T12:08:40.163Z,83.58
2018-09-23T12:11:08.365Z,84.00
2018-09-23T12:13:36.555Z,84.28
2018-09-23T12:16:04.775Z,84.85
2018-09-23T12:18:32.987Z,84.80
2018-09-23T12:21:01.205Z,85.53
2018-09-23T12:23:29.391Z,85.65
2018-09-23T12:25:57.592Z,86.30
2018-09-23T12:28:25.760Z,86.38
2018-09-23T12:30:53.959Z,86.55
2018-09-23T12:33:22.275Z,86.51
2018-09-23T12:35:50.467Z,86.49
2018-09-23T12:38:18.663Z,86.33
2018-09-23T12:40:47.000Z,86.45
2018-09-23T12:43:15.229Z,86.59
2018-09-23T12:45:43.426Z,86.59
2018-09-23T12:48:11.664Z,86.60
2018-09-23T12:50:40.076Z,86.66
2018-09-23T12:53:08.260Z,86.77
2018-09-23T12:55:36.553Z,86.61
2018-09-23T12:58:04.835Z,87.29
2018-09-23T13:00:33.771Z,86.89
2018-09-23T13:03:02.071Z,87.00
2018-09-23T13:05:30.406Z,87.03
2018-09-23T13:07:58.749Z,87.17
2018-09-23T13:10:27.041Z,87.47
2018-09-23T13:12:55.278Z,87.24
2018-09-23T13:15:23.596Z,87.18
2018-09-23T13:17:52.004Z,87.50
2018-09-23T13:20:20.519Z,87.90
2018-09-23T13:22:48.908Z,87.76
2018-09-23T13:25:18.138Z,87.27
2018-09-23T13:27:46.501Z,87.25
2018-09-23T13:30:15.043Z,87.11
2018-09-23T13:32:43.270Z,87.18
2018-09-23T13:35:11.468Z,87.18
2018-09-23T13:37:39.782Z,86.71
2018-09-23T13:40:09.734Z,86.94
2018-09-23T13:42:38.032Z,86.52
2018-09-23T13:45:06.341Z,86.32
2018-09-23T13:47:34.616Z,86.29
2018-09-23T13:50:03.997Z,85.74
2018-09-23T13:52:32.869Z,86.54
2018-09-23T13:55:01.300Z,86.74
2018-09-23T13:57:29.629Z,86.43
2018-09-23T13:59:58.120Z,86.02
2018-09-23T14:02:26.750Z,86.17
2018-09-23T14:04:56.105Z,86.04
2018-09-23T14:07:25.139Z,85.77
2018-09-23T14:09:54.899Z,85.52
2018-09-23T14:12:23.187Z,85.28
2018-09-23T14:14:53.267Z,85.56
2018-09-23T14:17:22.407Z,85.53
2018-09-23T14:19:50.731Z,85.61
2018-09-23T14:22:19.566Z,85.78
2018-09-23T14:24:48.691Z,85.53
2018-09-23T14:27:17.801Z,85.77
2018-09-23T14:29:46.472Z,85.77
2018-09-23T14:32:14.853Z,85.69
2018-09-23T14:34:43.079Z,85.79
2018-09-23T14:37:11.356Z,85.44
2018-09-23T14:39:39.946Z,86.01
2018-09-23T14:42:08.343Z,85.99
2018-09-23T14:44:37.313Z,85.71
2018-09-23T14:47:05.760Z,85.63
2018-09-23T14:49:34.956Z,85.86
2018-09-23T14:52:03.148Z,85.70
2018-09-23T14:54:31.631Z,85.73
2018-09-23T14:57:00.040Z,85.70
2018-09-23T14:59:28.579Z,85.99
2018-09-23T15:01:57.684Z,85.98
2018-09-23T15:04:26.213Z,85.84
2018-09-23T15:06:56.073Z,85.95
2018-09-23T15:09:24.580Z,85.41
2018-09-23T15:11:52.868Z,85.21
2018-09-23T15:14:21.343Z,84.62
2018-09-23T15:16:50.462Z,84.39
2018-09-23T15:19:18.796Z,84.85
2018-09-23T15:21:47.338Z,84.31
2018-09-23T15:24:15.571Z,84.45
2018-09-23T15:26:44.107Z,84.22
2018-09-23T15:29:13.147Z,84.35
2018-09-23T15:31:42.087Z,84.76
2018-09-23T15:34:10.351Z,83.87
2018-09-23T15:36:38.685Z,83.98
2018-09-23T15:39:07.768Z,84.49
2018-09-23T15:41:36.189Z,84.61
2018-09-23T15:44:04.479Z,84.31
2018-09-23T15:46:32.816Z,84.83
2018-09-23T15:49:01.103Z,84.57
2018-09-23T15:51:29.967Z,84.58
2018-09-23T15:53:58.270Z,84.48
2018-09-23T15:56:26.595Z,84.38
2018-09-23T15:58:55.448Z,83.45
2018-09-23T16:01:24.060Z,82.16
2018-09-23T16:03:52.530Z,81.82
2018-09-23T16:06:20.948Z,81.44
2018-09-23T16:08:49.201Z,81.12
2018-09-23T16:11:17.551Z,80.53
2018-09-23T16:13:45.792Z,80.42
2018-09-23T16:16:13.979Z,79.57
2018-09-23T16:18:42.561Z,79.91
2018-09-23T16:21:10.796Z,80.45
2018-09-23T16:23:39.955Z,79.55
2018-09-23T16:26:08.279Z,79.16
2018-09-23T16:28:36.503Z,79.11
2018-09-23T16:31:04.735Z,79.91
2018-09-23T16:33:33.895Z,79.67
2018-09-23T16:36:02.218Z,78.60
2018-09-23T16:38:30.543Z,78.58
2018-09-23T16:40:58.983Z,78.90
2018-09-23T16:43:27.179Z,77.94
2018-09-23T16:45:56.379Z,77.06
2018-09-23T16:48:24.839Z,77.81
2018-09-23T16:50:53.264Z,78.69
2018-09-23T16:53:21.527Z,78.66
2018-09-23T16:55:49.997Z,79.16
2018-09-23T16:58:18.483Z,79.14
2018-09-23T17:00:46.821Z,79.12
2018-09-23T17:03:15.747Z,77.49
2018-09-23T17:05:44.143Z,78.42
2018-09-23T17:08:12.455Z,78.70
2018-09-23T17:10:40.780Z,79.47
2018-09-23T17:13:09.083Z,79.82
2018-09-23T17:15:37.349Z,79.53
2018-09-23T17:18:05.935Z,80.04
2018-09-23T17:20:34.460Z,79.99
2018-09-23T17:23:02.863Z,80.09
2018-09-23T17:25:31.116Z,80.08
2018-09-23T17:27:59.383Z,80.15
2018-09-23T17:30:27.863Z,80.40
2018-09-23T17:32:56.026Z,80.41
2018-09-23T17:35:24.259Z,80.97
2018-09-23T17:37:52.435Z,81.82
2018-09-23T17:40:20.604Z,81.48
2018-09-23T17:42:48.797Z,81.98
2018-09-23T17:45:16.997Z,82.06
2018-09-23T17:47:47.691Z,82.48
2018-09-23T17:50:15.866Z,82.48
2018-09-23T17:52:44.483Z,82.83
2018-09-23T17:55:12.875Z,82.97
2018-09-23T17:57:41.355Z,82.61
2018-09-23T18:00:10.943Z,82.76
2018-09-23T18:02:39.458Z,82.27
2018-09-23T18:05:07.855Z,82.37
2018-09-23T18:07:36.096Z,83.02
2018-09-23T18:10:04.319Z,82.80
2018-09-23T18:12:32.598Z,82.51
2018-09-23T18:15:00.809Z,82.99
2018-09-23T18:17:29.040Z,82.63
2018-09-23T18:19:57.543Z,82.30
2018-09-23T18:22:25.813Z,81.81
2018-09-23T18:24:54.827Z,82.15
2018-09-23T18:27:23.094Z,81.46
2018-09-23T18:29:52.003Z,81.69
2018-09-23T18:32:20.256Z,81.86
2018-09-23T18:34:48.504Z,81.66
2018-09-23T18:37:17.726Z,81.81
2018-09-23T18:39:46.036Z,81.64
2018-09-23T18:42:14.274Z,81.39
2018-09-23T18:44:42.591Z,81.40
2018-09-23T18:47:10.963Z,81.91
2018-09-23T18:49:39.227Z,82.06
2018-09-23T18:52:08.878Z,82.41
2018-09-23T18:54:42.367Z,82.14
2018-09-23T18:57:10.641Z,82.32
2018-09-23T18:59:38.904Z,82.04
2018-09-23T19:02:07.407Z,82.01
2018-09-23T19:04:35.899Z,81.90
2018-09-23T19:07:04.328Z,82.08
2018-09-23T19:09:33.515Z,82.13
2018-09-23T19:12:01.783Z,82.20
2018-09-23T19:14:30.578Z,82.15
2018-09-23T19:16:58.814Z,81.84
2018-09-23T19:19:32.859Z,81.73
2018-09-23T19:22:01.105Z,82.27
2018-09-23T19:24:29.485Z,82.71
2018-09-23T19:26:57.776Z,82.61
2018-09-23T19:29:25.974Z,82.10
2018-09-23T19:31:54.256Z,82.14
2018-09-23T19:34:22.512Z,82.68
2018-09-23T19:36:50.730Z,82.48
2018-09-23T19:39:19.448Z,82.01
2018-09-23T19:41:47.652Z,82.80
2018-09-23T19:44:16.480Z,82.84
2018-09-23T19:46:44.676Z,83.10
2018-09-23T19:49:12.905Z,82.27
2018-09-23T19:51:41.074Z,81.99
2018-09-23T19:54:09.268Z,82.19
2018-09-23T19:56:37.459Z,81.64
2018-09-23T19:59:05.680Z,81.56
2018-09-23T20:01:33.868Z,81.54
2018-09-23T20:04:02.084Z,81.31
2018-09-23T20:06:30.334Z,81.63
2018-09-23T20:08:58.480Z,81.54
2018-09-23T20:11:26.655Z,81.88
2018-09-23T20:13:54.860Z,81.42
2018-09-23T20:16:23.041Z,81.59
2018-09-23T20:18:51.227Z,81.56
2018-09-23T20:21:19.407Z,81.91
2018-09-23T20:23:47.742Z,82.08
2018-09-23T20:26:15.971Z,82.48
2018-09-23T20:28:44.823Z,82.11
2018-09-23T20:31:13.035Z,82.16
2018-09-23T20:33:41.226Z,81.42
2018-09-23T20:36:09.429Z,81.42
2018-09-23T20:38:37.623Z,81.50
2018-09-23T20:41:05.923Z,81.31
2018-09-23T20:43:34.115Z,81.41
2018-09-23T20:46:02.303Z,81.40
2018-09-23T20:48:30.474Z,81.73
2018-09-23T20:50:58.668Z,81.21
2018-09-23T20:53:26.856Z,81.48
2018-09-23T20:55:55.059Z,81.49
2018-09-23T20:58:23.266Z,81.47
2018-09-23T21:00:51.476Z,81.41
2018-09-23T21:03:19.659Z,81.45
2018-09-23T21:05:47.864Z,81.19
2018-09-23T21:08:16.056Z,81.41
2018-09-23T21:10:44.251Z,81.44
2018-09-23T21:13:12.439Z,81.46
2018-09-23T21:15:40.656Z,80.87
2018-09-23T21:18:08.847Z,80.86
2018-09-23T21:20:37.031Z,81.24
2018-09-23T21:23:05.505Z,80.81
2018-09-23T21:25:33.691Z,80.72
2018-09-23T21:28:01.892Z,80.43
2018-09-23T21:30:30.096Z,80.81
2018-09-23T21:32:58.291Z,81.14
2018-09-23T21:35:26.482Z,81.27
2018-09-23T21:37:54.712Z,81.53
2018-09-23T21:40:22.905Z,80.93
2018-09-23T21:42:51.083Z,80.50
2018-09-23T21:45:19.280Z,80.85
2018-09-23T21:47:47.576Z,80.48
2018-09-23T21:50:15.778Z,80.45
2018-09-23T21:52:43.973Z,80.79
2018-09-23T21:55:12.151Z,81.25
2018-09-23T21:57:40.331Z,80.80
2018-09-23T22:00:09.400Z,80.69
2018-09-23T22:02:37.583Z,80.65
2018-09-23T22:05:05.785Z,80.98
2018-09-23T22:07:33.991Z,80.95
2018-09-23T22:10:02.179Z,80.99
2018-09-23T22:12:30.388Z,80.91
2018-09-23T22:14:58.572Z,81.02
2018-09-23T22:17:26.779Z,80.66
2018-09-23T22:19:54.983Z,81.26
2018-09-23T22:22:23.213Z,81.04
2018-09-23T22:24:51.399Z,80.78
2018-09-23T22:27:19.604Z,80.41
2018-09-23T22:29:47.792Z,80.55
2018-09-23T22:32:15.976Z,79.90
2018-09-23T22:34:44.155Z,80.38
2018-09-23T22:37:12.360Z,80.15
2018-09-23T22:39:40.559Z,80.48
2018-09-23T22:42:08.764Z,79.96
2018-09-23T22:44:36.955Z,80.20
2018-09-23T22:47:05.145Z,80.13
2018-09-23T22:49:33.325Z,79.87
2018-09-23T22:52:01.573Z,80.39
2018-09-23T22:54:29.777Z,80.56
2018-09-23T22:56:57.979Z,80.43
2018-09-23T22:59:26.213Z,80.48
2018-09-23T23:01:54.396Z,80.32
2018-09-23T23:04:22.573Z,80.58
2018-09-23T23:06:50.775Z,80.51
2018-09-23T23:09:18.975Z,80.29
2018-09-23T23:11:47.174Z,79.87
2018-09-23T23:14:15.387Z,79.77
2018-09-23T23:16:43.591Z,79.68
2018-09-23T23:19:11.819Z,79.46
2018-09-23T23:21:40.004Z,79.77
2018-09-23T23:24:08.206Z,80.01
2018-09-23T23:26:36.424Z,79.14
2018-09-23T23:29:04.657Z,79.68
2018-09-23T23:31:32.843Z,79.28
2018-09-23T23:34:01.044Z,78.86
2018-09-23T23:36:29.249Z,78.85
2018-09-23T23:38:57.445Z,78.95
2018-09-23T23:41:25.730Z,78.68
2018-09-23T23:43:53.939Z,78.76
2018-09-23T23:46:22.138Z,79.01
2018-09-23T23:48:50.344Z,79.21
2018-09-23T23:51:18.536Z,79.47
2018-09-23T23:53:46.766Z,79.87
2018-09-23T23:56:14.955Z,79.96
2018-09-23T23:58:43.154Z,79.89
